Terminal Aerodrome Forecast
Issued by NWS Mt. Holly, NJ

Home | Current Version | Previous Version | Text Only | Print | Product List | Glossary On
Versions: 1 2 3 4 5 6 7 8 9 10 11 12 13 14 15 16 17 18 19
000
FTUS41 KPHI 012351
TAFTTN
TAF
KTTN 012351Z 0200/0224 15004KT 3SM -FZRA OVC005
      TEMPO 0203/0206 6SM -FZRA
     FM020600 23005KT 3SM BR OVC005
      TEMPO 0206/0209 2SM -FZDZ
     FM020900 27007KT 6SM BR OVC012
     FM021000 31010KT P6SM OVC035
     FM021500 31014G22KT P6SM SCT050 BKN250=

USA.gov is the U.S. government's official web portal to all federal, state and local government web resources and services.